sensor_id;sensor_type;location;lat;lon;timestamp;temperature;humidity
31687;DHT22;18285;51.330;4.946;2022-07-31T00:22:57;25.70;46.30
31687;DHT22;18285;51.330;4.946;2022-07-31T00:47:08;25.70;46.00
31687;DHT22;18285;51.330;4.946;2022-07-31T01:11:23;25.70;45.90
31687;DHT22;18285;51.330;4.946;2022-07-31T01:35:41;25.70;46.10
31687;DHT22;18285;51.330;4.946;2022-07-31T01:59:55;25.80;46.20
31687;DHT22;18285;51.330;4.946;2022-07-31T02:24:08;25.80;46.00
31687;DHT22;18285;51.330;4.946;2022-07-31T02:48:19;25.80;46.10
31687;DHT22;18285;51.330;4.946;2022-07-31T03:12:30;25.80;46.20
31687;DHT22;18285;51.330;4.946;2022-07-31T03:36:41;25.80;46.30
31687;DHT22;18285;51.330;4.946;2022-07-31T04:00:52;25.80;46.40
31687;DHT22;18285;51.330;4.946;2022-07-31T04:25:03;25.80;46.60
31687;DHT22;18285;51.330;4.946;2022-07-31T04:49:14;25.80;46.90
31687;DHT22;18285;51.330;4.946;2022-07-31T05:13:25;25.80;47.20
31687;DHT22;18285;51.330;4.946;2022-07-31T05:37:35;25.80;47.50
31687;DHT22;18285;51.330;4.946;2022-07-31T06:01:46;25.80;47.60
31687;DHT22;18285;51.330;4.946;2022-07-31T06:25:57;25.80;47.80
31687;DHT22;18285;51.330;4.946;2022-07-31T06:50:08;25.80;47.90
31687;DHT22;18285;51.330;4.946;2022-07-31T07:14:18;25.80;48.10
31687;DHT22;18285;51.330;4.946;2022-07-31T07:38:29;25.80;48.20
31687;DHT22;18285;51.330;4.946;2022-07-31T08:02:41;25.90;48.90
31687;DHT22;18285;51.330;4.946;2022-07-31T08:26:54;25.90;48.60
31687;DHT22;18285;51.330;4.946;2022-07-31T08:51:24;25.90;48.70
31687;DHT22;18285;51.330;4.946;2022-07-31T09:15:35;25.90;49.50
31687;DHT22;18285;51.330;4.946;2022-07-31T09:39:51;25.90;48.80
31687;DHT22;18285;51.330;4.946;2022-07-31T10:04:04;25.90;48.90
31687;DHT22;18285;51.330;4.946;2022-07-31T10:28:16;25.90;48.80
31687;DHT22;18285;51.330;4.946;2022-07-31T10:52:32;25.90;49.00
31687;DHT22;18285;51.330;4.946;2022-07-31T11:16:53;26.00;49.30
31687;DHT22;18285;51.330;4.946;2022-07-31T11:41:05;26.00;49.40
31687;DHT22;18285;51.330;4.946;2022-07-31T12:05:17;25.90;49.30
31687;DHT22;18285;51.330;4.946;2022-07-31T12:29:32;26.00;49.10
31687;DHT22;18285;51.330;4.946;2022-07-31T12:53:43;26.00;49.80
31687;DHT22;18285;51.330;4.946;2022-07-31T13:17:55;26.00;49.60
31687;DHT22;18285;51.330;4.946;2022-07-31T13:42:05;26.00;49.50
31687;DHT22;18285;51.330;4.946;2022-07-31T14:06:16;26.10;49.80
31687;DHT22;18285;51.330;4.946;2022-07-31T14:30:27;26.10;49.60
31687;DHT22;18285;51.330;4.946;2022-07-31T14:54:37;26.00;50.00
31687;DHT22;18285;51.330;4.946;2022-07-31T15:18:48;26.10;49.90
31687;DHT22;18285;51.330;4.946;2022-07-31T15:42:59;26.10;49.70
31687;DHT22;18285;51.330;4.946;2022-07-31T16:07:10;26.10;49.90
31687;DHT22;18285;51.330;4.946;2022-07-31T16:31:20;26.10;50.20
31687;DHT22;18285;51.330;4.946;2022-07-31T16:55:31;26.10;50.30
31687;DHT22;18285;51.330;4.946;2022-07-31T17:19:42;26.20;51.70
31687;DHT22;18285;51.330;4.946;2022-07-31T17:43:53;26.20;52.90
31687;DHT22;18285;51.330;4.946;2022-07-31T18:08:03;26.20;53.10
31687;DHT22;18285;51.330;4.946;2022-07-31T18:32:14;26.20;53.70
31687;DHT22;18285;51.330;4.946;2022-07-31T18:56:25;26.10;52.40
31687;DHT22;18285;51.330;4.946;2022-07-31T19:20:36;26.10;52.20
31687;DHT22;18285;51.330;4.946;2022-07-31T19:44:46;26.10;52.10
31687;DHT22;18285;51.330;4.946;2022-07-31T20:08:57;26.10;54.50
31687;DHT22;18285;51.330;4.946;2022-07-31T20:33:08;26.10;53.40
31687;DHT22;18285;51.330;4.946;2022-07-31T20:57:19;26.10;54.20
31687;DHT22;18285;51.330;4.946;2022-07-31T21:21:29;26.00;55.20
31687;DHT22;18285;51.330;4.946;2022-07-31T21:45:40;26.10;54.30
31687;DHT22;18285;51.330;4.946;2022-07-31T22:09:52;26.10;53.00
31687;DHT22;18285;51.330;4.946;2022-07-31T22:34:02;26.20;53.40
31687;DHT22;18285;51.330;4.946;2022-07-31T22:58:13;26.20;52.80
31687;DHT22;18285;51.330;4.946;2022-07-31T23:22:24;26.20;53.40
31687;DHT22;18285;51.330;4.946;2022-07-31T23:46:37;26.20;52.80
